Time;durP1;ratioP1;P1;durP2;ratioP2;P2;SDS_P1;SDS_P2;PMS_P1;PMS_P2;Temp;Humidity;BMP_temperature;BMP_pressure;BME280_temperature;BME280_humidity;BME280_pressure;Samples;Min_cycle;Max_cycle;Signal;HPM_P1;HPM_P2
2022/12/12 00:01:26;;;;;;;19.10;12.90;;;;;;;-2.56;81.94;99040.96;102955;1328;36773;-76
2022/12/12 00:04:00;;;;;;;18.70;12.30;;;;;;;-2.61;81.80;99038.25;102999;1327;37105;-73
2022/12/12 00:06:33;;;;;;;18.50;11.30;;;;;;;-2.65;81.83;99038.27;102944;1331;37200;-74
2022/12/12 00:09:08;;;;;;;16.80;11.70;;;;;;;-2.64;81.99;99039.30;102994;1329;37439;-73
2022/12/12 00:11:42;;;;;;;20.90;12.50;;;;;;;-2.62;82.04;99037.92;102947;1315;37216;-73
2022/12/12 00:14:16;;;;;;;17.40;12.50;;;;;;;-2.61;82.07;99041.34;103017;1331;37264;-73
2022/12/12 00:16:50;;;;;;;17.20;11.50;;;;;;;-2.62;81.97;99039.29;102933;1333;37225;-72
2022/12/12 00:19:24;;;;;;;16.80;12.10;;;;;;;-2.64;81.87;99033.66;103063;1327;37445;-75
2022/12/12 00:21:58;;;;;;;15.10;11.00;;;;;;;-2.64;82.00;99036.23;103021;1331;37210;-75
2022/12/12 00:24:32;;;;;;;16.60;11.40;;;;;;;-2.62;81.91;99028.36;103033;1333;37212;-75
2022/12/12 00:27:06;;;;;;;16.00;11.60;;;;;;;-2.58;82.09;99023.04;103007;1331;36433;-75
2022/12/12 00:29:40;;;;;;;20.40;13.00;;;;;;;-2.56;82.16;99022.70;102961;1332;37142;-72
2022/12/12 00:32:15;;;;;;;18.30;12.90;;;;;;;-2.58;81.82;99020.32;102981;1330;37297;-72
2022/12/12 00:34:49;;;;;;;16.60;12.00;;;;;;;-2.61;81.89;99015.20;102957;1329;37350;-72
2022/12/12 00:37:23;;;;;;;16.00;10.90;;;;;;;-2.60;81.91;99018.29;102947;1331;37307;-72
2022/12/12 00:39:57;;;;;;;16.60;11.60;;;;;;;-2.58;82.05;99024.06;103008;1328;36112;-76
2022/12/12 00:42:31;;;;;;;17.70;11.60;;;;;;;-2.55;82.18;99024.92;102940;1331;36366;-74
2022/12/12 00:45:05;;;;;;;17.90;11.90;;;;;;;-2.52;82.18;99026.77;102900;1330;36824;-73
2022/12/12 00:47:40;;;;;;;16.10;11.40;;;;;;;-2.52;82.13;99025.39;102931;1329;36966;-73
2022/12/12 00:50:19;;;;;;;18.10;12.10;;;;;;;-2.52;82.08;99021.64;102979;1327;38337;-72
2022/12/12 00:52:56;;;;;;;16.40;11.50;;;;;;;-2.53;82.00;99017.37;102960;1330;36321;-74
2022/12/12 00:55:31;;;;;;;16.90;12.30;;;;;;;-2.53;82.04;99017.20;102896;1330;37150;-75
2022/12/12 00:58:05;;;;;;;17.30;12.70;;;;;;;-2.50;82.14;99020.09;102887;1330;37246;-72
2022/12/12 01:00:41;;;;;;;15.80;11.50;;;;;;;-2.49;82.19;99019.58;102989;1330;37647;-72
2022/12/12 01:03:15;;;;;;;15.30;11.30;;;;;;;-2.53;81.93;99015.50;103022;1329;37116;-74
2022/12/12 01:05:50;;;;;;;14.70;11.10;;;;;;;-2.56;81.91;99010.41;102962;1330;37324;-74
2022/12/12 01:08:25;;;;;;;17.10;12.30;;;;;;;-2.58;81.64;99004.78;103016;1328;37143;-75
2022/12/12 01:11:01;;;;;;;15.80;10.90;;;;;;;-2.58;82.04;99000.52;102929;1332;38534;-73
2022/12/12 01:13:35;;;;;;;16.10;10.90;;;;;;;-2.55;82.06;99005.80;102994;1329;36415;-75
2022/12/12 01:16:10;;;;;;;17.90;12.10;;;;;;;-2.57;82.03;99000.33;102936;1332;37323;-76
2022/12/12 01:18:44;;;;;;;15.90;11.70;;;;;;;-2.58;82.17;98995.05;102996;1328;37311;-74
2022/12/12 01:21:19;;;;;;;14.30;10.20;;;;;;;-2.55;82.31;98990.95;102903;1329;40840;-74
2022/12/12 01:23:54;;;;;;;14.60;11.10;;;;;;;-2.50;82.25;98988.34;102515;1332;600045;-74
2022/12/12 01:26:28;;;;;;;15.80;11.60;;;;;;;-2.49;82.30;98986.96;102947;1331;38396;-72
2022/12/12 01:29:03;;;;;;;17.00;11.70;;;;;;;-2.46;82.39;98987.63;102720;1333;36871;-75
2022/12/12 01:31:37;;;;;;;16.40;11.40;;;;;;;-2.42;82.45;98984.69;102951;1329;37312;-76
2022/12/12 01:34:12;;;;;;;18.20;11.40;;;;;;;-2.41;82.27;98981.59;102921;1329;37184;-72
2022/12/12 01:36:46;;;;;;;12.40;9.70;;;;;;;-2.43;82.16;98976.84;102961;1330;37321;-72
2022/12/12 01:39:20;;;;;;;14.10;10.90;;;;;;;-2.44;81.88;98977.69;102978;1329;37390;-75
2022/12/12 01:41:54;;;;;;;16.00;11.50;;;;;;;-2.46;81.86;98978.73;102961;1329;37260;-75
2022/12/12 01:44:49;;;;;;;18.30;11.70;;;;;;;-2.47;81.74;98972.77;102981;1329;37358;-72
2022/12/12 01:47:24;;;;;;;15.50;11.20;;;;;;;-2.50;82.12;98968.86;102949;1329;37544;-72
2022/12/12 01:50:00;;;;;;;16.30;11.30;;;;;;;-2.50;82.08;98970.91;102984;1331;37355;-72
2022/12/12 01:52:38;;;;;;;13.90;9.90;;;;;;;-2.51;82.17;98966.31;102999;1331;37263;-73
2022/12/12 01:55:19;;;;;;;15.70;11.10;;;;;;;-2.50;81.92;98965.28;103014;1329;36465;-74
2022/12/12 01:57:55;;;;;;;17.20;11.40;;;;;;;-2.50;82.15;98963.58;103006;1329;37196;-73
2022/12/12 02:00:30;;;;;;;17.90;12.00;;;;;;;-2.48;82.21;98966.80;103002;1331;37257;-74
2022/12/12 02:03:04;;;;;;;18.30;12.50;;;;;;;-2.50;82.17;98965.61;103028;1329;37265;-76
2022/12/12 02:05:42;;;;;;;18.70;12.10;;;;;;;-2.50;82.37;98961.18;102955;1331;37219;-77
2022/12/12 02:08:16;;;;;;;16.40;10.60;;;;;;;-2.46;82.45;98962.18;102980;1328;36160;-75
2022/12/12 02:10:50;;;;;;;15.70;11.50;;;;;;;-2.44;82.18;98963.02;102954;1327;37278;-74
2022/12/12 02:13:26;;;;;;;16.00;10.40;;;;;;;-2.45;81.98;98965.23;102939;1331;37472;-73
2022/12/12 02:16:06;;;;;;;14.90;9.90;;;;;;;-2.44;82.22;98966.08;102982;1331;37302;-73
2022/12/12 02:18:45;;;;;;;14.30;9.50;;;;;;;-2.47;82.04;98965.09;102975;1330;36742;-75
2022/12/12 02:21:22;;;;;;;12.60;8.60;;;;;;;-2.46;82.22;98964.91;102968;1328;37263;-75
2022/12/12 02:24:11;;;;;;;14.00;9.40;;;;;;;-2.41;82.47;98960.26;102969;1331;37447;-74
2022/12/12 02:27:20;;;;;;;12.80;9.60;;;;;;;-2.37;82.40;98954.23;102955;1330;37464;-75
2022/12/12 02:30:14;;;;;;;14.20;9.90;;;;;;;-2.37;82.20;98956.98;103046;1329;37101;-75
2022/12/12 02:33:27;;;;;;;14.50;10.20;;;;;;;-2.43;82.20;98960.44;102894;1333;37188;-74
2022/12/12 02:36:10;;;;;;;13.60;9.40;;;;;;;-2.45;82.37;98964.21;102942;1332;37266;-72
2022/12/12 02:38:53;;;;;;;14.50;9.10;;;;;;;-2.46;82.30;98965.77;103015;1328;37383;-73
2022/12/12 02:41:36;;;;;;;11.10;8.80;;;;;;;-2.42;82.51;98969.81;102997;1330;37138;-73
2022/12/12 02:44:18;;;;;;;12.50;8.60;;;;;;;-2.39;82.33;98972.19;102311;1329;913950;-73
2022/12/12 02:46:59;;;;;;;10.70;8.00;;;;;;;-2.39;82.27;98970.64;102959;1331;38300;-74
2022/12/12 02:49:35;;;;;;;10.70;8.00;;;;;;;-2.38;82.44;98968.76;103005;1328;37724;-73
2022/12/12 02:52:09;;;;;;;9.90;7.90;;;;;;;-2.36;82.32;98968.58;102969;1329;37206;-72
2022/12/12 02:54:43;;;;;;;9.40;7.60;;;;;;;-2.37;82.25;98971.15;102961;1329;37373;-74
2022/12/12 02:57:19;;;;;;;9.50;7.60;;;;;;;-2.38;82.08;98971.66;102951;1329;37105;-75
2022/12/12 02:59:56;;;;;;;11.00;8.30;;;;;;;-2.39;82.07;98975.61;103012;1330;37140;-75
2022/12/12 03:09:31;;;;;;;10.80;8.70;;;;;;;-2.42;82.31;98975.80;102992;1329;37136;-73
2022/12/12 03:12:09;;;;;;;11.20;7.90;;;;;;;-2.42;82.38;98973.23;102977;1331;37514;-73
2022/12/12 03:14:51;;;;;;;10.60;7.90;;;;;;;-2.42;82.51;98965.55;102970;1331;37267;-75
2022/12/12 03:17:30;;;;;;;10.40;7.40;;;;;;;-2.37;82.83;98964.66;102991;1329;37521;-75
2022/12/12 03:20:10;;;;;;;10.40;8.10;;;;;;;-2.34;82.59;98960.36;103028;1329;36389;-76
2022/12/12 03:22:49;;;;;;;10.90;7.90;;;;;;;-2.36;82.56;98955.27;103007;1327;38288;-74
2022/12/12 03:25:26;;;;;;;10.40;7.90;;;;;;;-2.37;82.69;98949.79;102999;1329;37235;-73
2022/12/12 03:28:04;;;;;;;10.00;7.10;;;;;;;-2.38;82.54;98946.58;102381;1331;916619;-74
2022/12/12 03:30:45;;;;;;;9.40;7.40;;;;;;;-2.41;82.42;98941.83;102999;1331;37228;-76
2022/12/12 03:33:24;;;;;;;11.20;7.40;;;;;;;-2.40;82.61;98946.08;102956;1330;38021;-76
2022/12/12 03:36:03;;;;;;;10.10;8.00;;;;;;;-2.37;82.70;98941.94;102946;1331;36222;-76
2022/12/12 03:38:41;;;;;;;10.60;8.30;;;;;;;-2.34;82.79;98938.33;102941;1332;37390;-72
2022/12/12 03:41:19;;;;;;;10.90;8.20;;;;;;;-2.34;82.90;98939.70;102948;1333;37155;-73
2022/12/12 03:43:57;;;;;;;9.30;7.50;;;;;;;-2.36;82.69;98940.06;102938;1332;37142;-76
2022/12/12 03:46:33;;;;;;;9.50;7.70;;;;;;;-2.36;82.93;98936.48;102890;1332;36483;-76
2022/12/12 03:49:09;;;;;;;11.60;7.80;;;;;;;-2.29;83.12;98941.70;102959;1331;36995;-74
2022/12/12 03:51:45;;;;;;;11.80;8.50;;;;;;;-2.24;83.05;98935.00;102930;1331;37598;-74
2022/12/12 03:54:23;;;;;;;11.40;8.90;;;;;;;-2.25;82.90;98932.61;102955;1329;37572;-74
2022/12/12 03:56:59;;;;;;;11.20;8.90;;;;;;;-2.28;82.96;98927.85;102967;1329;37403;-74
2022/12/12 03:59:36;;;;;;;10.20;8.40;;;;;;;-2.29;82.98;98929.59;102946;1331;36921;-72
2022/12/12 04:02:15;;;;;;;10.80;8.00;;;;;;;-2.27;83.21;98929.21;102982;1328;37667;-73
2022/12/12 04:04:55;;;;;;;10.90;7.90;;;;;;;-2.26;83.30;98929.90;103036;1331;38551;-73
2022/12/12 04:07:32;;;;;;;11.40;8.30;;;;;;;-2.22;83.22;98928.84;102956;1331;36469;-73
2022/12/12 04:13:08;;;;;;;11.70;9.20;;;;;;;-2.19;83.26;98922.13;102917;1331;36281;-75
2022/12/12 04:15:59;;;;;;;9.50;7.80;;;;;;;-2.18;83.31;98921.95;102999;1331;37412;-76
2022/12/12 04:18:46;;;;;;;9.00;7.80;;;;;;;-2.19;83.17;98922.31;102978;1329;36823;-74
2022/12/12 04:24:26;;;;;;;11.10;8.30;;;;;;;-2.14;83.50;98919.00;102970;1331;37312;-75
2022/12/12 04:27:03;;;;;;;11.10;8.60;;;;;;;-2.13;83.33;98922.58;102956;1333;37379;-75
2022/12/12 04:29:42;;;;;;;12.20;8.60;;;;;;;-2.14;83.36;98921.06;102989;1329;37239;-75
2022/12/12 04:32:20;;;;;;;11.30;8.30;;;;;;;-2.14;83.48;98915.58;102947;1331;36471;-75
2022/12/12 04:34:58;;;;;;;12.40;8.80;;;;;;;-2.14;83.33;98913.02;102836;1329;187725;-73
2022/12/12 04:37:35;;;;;;;11.40;8.60;;;;;;;-2.12;83.55;98911.81;102945;1329;37401;-73
2022/12/12 04:40:14;;;;;;;14.20;9.40;;;;;;;-2.11;83.51;98910.96;102958;1329;37172;-76
2022/12/12 04:42:53;;;;;;;17.70;10.90;;;;;;;-2.12;83.56;98911.12;102942;1332;37473;-74
2022/12/12 04:45:30;;;;;;;13.60;9.30;;;;;;;-2.13;83.53;98911.14;102855;1332;37680;-76
2022/12/12 04:48:07;;;;;;;11.90;8.20;;;;;;;-2.12;83.82;98909.24;102959;1331;37735;-74
2022/12/12 04:50:42;;;;;;;10.90;8.20;;;;;;;-2.08;83.81;98910.40;102943;1329;37494;-74
2022/12/12 04:53:17;;;;;;;11.90;7.90;;;;;;;-2.02;83.99;98910.02;102989;1329;37326;-74
2022/12/12 04:55:53;;;;;;;11.40;8.10;;;;;;;-1.95;84.08;98907.36;103006;1331;37141;-73
2022/12/12 04:58:27;;;;;;;9.60;7.80;;;;;;;-1.93;83.97;98905.79;102961;1332;38002;-72
2022/12/12 05:01:07;;;;;;;10.30;7.10;;;;;;;-1.92;83.78;98907.48;103010;1329;37273;-73
2022/12/12 05:03:46;;;;;;;10.40;7.80;;;;;;;-1.90;83.67;98904.58;102998;1315;37257;-72
2022/12/12 05:06:22;;;;;;;9.60;7.40;;;;;;;-1.90;83.77;98900.65;102973;1328;37219;-72
2022/12/12 05:08:57;;;;;;;10.60;8.10;;;;;;;-1.88;83.76;98900.10;102998;1331;36235;-75
2022/12/12 05:11:32;;;;;;;11.10;8.50;;;;;;;-1.86;83.86;98898.89;102981;1332;37837;-74
2022/12/12 05:14:06;;;;;;;12.00;8.50;;;;;;;-1.83;83.81;98898.34;102307;1331;913803;-73
2022/12/12 05:16:42;;;;;;;9.50;7.80;;;;;;;-1.83;83.93;98894.73;102959;1329;37148;-75
2022/12/12 05:19:17;;;;;;;12.50;9.30;;;;;;;-1.81;84.13;98895.06;102974;1332;37453;-76
2022/12/12 05:21:51;;;;;;;11.90;8.30;;;;;;;-1.80;84.14;98894.37;102936;1331;36166;-76
2022/12/12 05:24:29;;;;;;;10.10;7.10;;;;;;;-1.74;84.11;98892.75;102913;1332;37108;-74
2022/12/12 05:27:05;;;;;;;7.70;6.90;;;;;;;-1.71;84.11;98891.54;102942;1331;38506;-74
2022/12/12 05:29:40;;;;;;;10.90;7.60;;;;;;;-1.69;84.28;98892.02;102982;1331;37134;-76
2022/12/12 05:32:14;;;;;;;9.70;7.30;;;;;;;-1.67;84.34;98892.51;102953;1329;36320;-74
2022/12/12 05:34:48;;;;;;;10.90;7.70;;;;;;;-1.67;84.20;98891.83;103000;1329;37637;-74
2022/12/12 05:37:22;;;;;;;8.40;6.90;;;;;;;-1.68;84.21;98887.90;103158;1326;37191;-73
2022/12/12 05:39:56;;;;;;;7.40;6.40;;;;;;;-1.66;84.11;98884.63;102948;1331;36285;-74
2022/12/12 05:42:30;;;;;;;7.80;6.40;;;;;;;-1.64;84.50;98882.03;102964;1312;37193;-76
2022/12/12 05:45:05;;;;;;;10.30;8.00;;;;;;;-1.61;84.41;98884.55;102980;1331;37178;-73
2022/12/12 05:47:39;;;;;;;20.90;12.40;;;;;;;-1.62;84.27;98889.02;102945;1331;37236;-72
2022/12/12 05:50:14;;;;;;;17.50;10.50;;;;;;;-1.61;84.52;98885.41;103031;1329;37181;-75
2022/12/12 05:52:48;;;;;;;12.10;8.60;;;;;;;-1.57;84.43;98888.80;103006;1327;37153;-71
2022/12/12 05:55:22;;;;;;;11.20;8.40;;;;;;;-1.55;84.69;98885.51;102967;1329;37351;-72
2022/12/12 05:57:57;;;;;;;9.60;7.30;;;;;;;-1.52;84.57;98881.39;102975;1327;37228;-75
2022/12/12 06:00:33;;;;;;;9.90;7.80;;;;;;;-1.51;84.48;98875.88;102953;1330;36715;-76
2022/12/12 06:03:10;;;;;;;10.60;7.50;;;;;;;-1.49;84.46;98873.62;102998;1331;37415;-75
2022/12/12 06:05:44;;;;;;;8.50;7.50;;;;;;;-1.46;84.70;98874.11;102983;1331;37420;-75
2022/12/12 06:08:22;;;;;;;9.50;7.10;;;;;;;-1.41;84.76;98876.27;102966;1331;37222;-76
2022/12/12 06:10:56;;;;;;;9.30;7.70;;;;;;;-1.35;84.92;98877.89;102940;1328;37163;-75
2022/12/12 06:13:30;;;;;;;12.70;9.40;;;;;;;-1.33;84.95;98873.23;102930;1328;37241;-75
2022/12/12 06:16:10;;;;;;;9.90;7.10;;;;;;;-1.34;84.64;98876.50;102843;1333;175124;-74
2022/12/12 06:18:45;;;;;;;8.80;6.70;;;;;;;-1.35;84.75;98876.69;102982;1328;36266;-76
2022/12/12 06:21:19;;;;;;;10.10;7.20;;;;;;;-1.33;84.75;98881.10;102983;1329;36949;-75
2022/12/12 06:23:53;;;;;;;9.30;7.00;;;;;;;-1.28;84.99;98884.80;102990;1329;36407;-75
2022/12/12 06:26:27;;;;;;;9.40;8.00;;;;;;;-1.22;85.12;98887.28;102973;1331;37504;-73
2022/12/12 06:29:01;;;;;;;11.60;8.80;;;;;;;-1.16;85.02;98889.94;102986;1330;37221;-75
2022/12/12 06:31:35;;;;;;;11.40;7.90;;;;;;;-1.12;85.13;98889.20;102996;1329;37239;-70
2022/12/12 06:34:09;;;;;;;11.10;8.00;;;;;;;-1.10;85.05;98885.22;102981;1329;37280;-72
2022/12/12 06:36:43;;;;;;;11.40;7.80;;;;;;;-1.10;84.89;98881.63;102986;1327;37145;-73
2022/12/12 06:39:17;;;;;;;9.60;7.60;;;;;;;-1.10;84.81;98883.00;102916;1332;37455;-73
2022/12/12 06:41:51;;;;;;;10.00;8.00;;;;;;;-1.07;85.16;98889.45;102997;1327;37270;-75
2022/12/12 06:44:25;;;;;;;12.40;9.20;;;;;;;-1.02;85.00;98891.45;102995;1331;37605;-72
2022/12/12 06:46:59;;;;;;;10.50;8.40;;;;;;;-0.99;84.88;98893.80;103005;1329;37222;-73
2022/12/12 06:49:33;;;;;;;11.90;8.00;;;;;;;-0.98;84.97;98899.95;103028;1327;37465;-75
2022/12/12 06:52:08;;;;;;;9.50;7.50;;;;;;;-0.94;85.32;98898.67;102985;1331;36180;-75
2022/12/12 06:54:45;;;;;;;10.80;7.50;;;;;;;-0.92;85.06;98900.36;102900;1332;172956;-75
2022/12/12 06:57:19;;;;;;;10.00;7.90;;;;;;;-0.89;85.23;98900.30;102856;1330;187769;-71
2022/12/12 06:59:54;;;;;;;10.20;7.90;;;;;;;-0.85;85.32;98901.44;102952;1330;37579;-74
2022/12/12 07:02:28;;;;;;;9.10;8.10;;;;;;;-0.81;85.47;98892.48;102910;1329;37895;-74
2022/12/12 07:05:03;;;;;;;11.80;8.20;;;;;;;-0.79;85.29;98894.16;102959;1329;37401;-76
2022/12/12 07:07:37;;;;;;;14.80;9.90;;;;;;;-0.78;85.22;98894.16;102967;1331;37148;-76
2022/12/12 07:10:16;;;;;;;17.50;11.20;;;;;;;-0.73;85.30;98893.23;102821;1329;187853;-73
2022/12/12 07:12:50;;;;;;;20.70;11.50;;;;;;;-0.73;85.04;98889.11;102954;1331;37244;-70
2022/12/12 07:15:25;;;;;;;13.20;9.10;;;;;;;-0.72;85.24;98892.17;102902;1329;38355;-72
2022/12/12 07:18:00;;;;;;;15.10;9.30;;;;;;;-0.72;85.31;98896.96;102997;1331;37210;-73
2022/12/12 07:20:37;;;;;;;16.50;11.20;;;;;;;-0.69;85.15;98897.26;103016;1331;36615;-75
2022/12/12 07:23:12;;;;;;;13.90;9.20;;;;;;;-0.68;85.14;98899.31;103072;1329;37377;-73
2022/12/12 07:25:47;;;;;;;11.50;8.30;;;;;;;-0.64;85.52;98896.15;103035;1330;37481;-72
2022/12/12 07:28:22;;;;;;;13.60;9.30;;;;;;;-0.57;85.55;98898.61;103050;1330;37403;-73
2022/12/12 07:30:57;;;;;;;20.90;13.40;;;;;;;-0.55;85.36;98897.02;102984;1332;37245;-74
2022/12/12 07:33:32;;;;;;;14.10;10.60;;;;;;;-0.54;85.39;98902.33;103069;1331;37125;-73
2022/12/12 07:36:07;;;;;;;13.90;9.90;;;;;;;-0.56;85.38;98897.38;102975;1330;36174;-74
2022/12/12 07:38:41;;;;;;;9.30;7.50;;;;;;;-0.55;85.51;98895.31;102948;1331;37847;-74
2022/12/12 07:41:17;;;;;;;8.90;7.20;;;;;;;-0.50;85.46;98898.81;102990;1331;37781;-75
2022/12/12 07:43:51;;;;;;;10.90;8.60;;;;;;;-0.46;85.55;98902.18;102860;1330;175073;-74
2022/12/12 07:46:26;;;;;;;12.70;9.10;;;;;;;-0.43;85.59;98904.19;102960;1331;37415;-75
2022/12/12 07:49:01;;;;;;;11.60;8.50;;;;;;;-0.44;85.44;98905.06;102951;1331;37304;-73
2022/12/12 07:51:35;;;;;;;10.50;7.90;;;;;;;-0.41;85.51;98906.91;102956;1329;36379;-73
2022/12/12 07:54:09;;;;;;;9.70;7.80;;;;;;;-0.34;85.66;98902.31;102910;1331;37207;-74
2022/12/12 07:56:46;;;;;;;11.00;8.40;;;;;;;-0.24;85.86;98906.60;102939;1330;37736;-73
2022/12/12 07:59:25;;;;;;;11.60;8.40;;;;;;;-0.17;85.88;98911.43;102989;1332;36646;-74
2022/12/12 08:02:10;;;;;;;10.20;8.00;;;;;;;-0.15;85.76;98911.07;102927;1331;175078;-73
2022/12/12 08:04:50;;;;;;;9.60;6.80;;;;;;;-0.14;85.67;98911.23;102971;1331;37136;-73
2022/12/12 08:07:24;;;;;;;9.00;7.70;;;;;;;-0.10;85.62;98911.48;102878;1331;37142;-75
2022/12/12 08:09:58;;;;;;;10.10;8.30;;;;;;;-0.03;85.78;98914.11;102867;1332;175109;-74
2022/12/12 08:12:33;;;;;;;10.40;7.60;;;;;;;0.03;85.72;98911.59;102946;1331;37469;-72
2022/12/12 08:15:09;;;;;;;9.80;7.70;;;;;;;0.09;85.80;98910.45;102962;1332;37220;-73
2022/12/12 08:17:45;;;;;;;9.90;7.80;;;;;;;0.11;85.70;98914.86;102893;1331;174210;-74
2022/12/12 08:20:19;;;;;;;10.00;7.30;;;;;;;0.12;85.50;98916.56;102976;1331;36929;-75
2022/12/12 08:22:53;;;;;;;8.40;6.70;;;;;;;0.13;85.38;98917.90;102935;1329;37123;-73
2022/12/12 08:25:27;;;;;;;9.70;7.00;;;;;;;0.16;85.49;98914.59;102931;1331;37667;-71
2022/12/12 08:28:01;;;;;;;11.70;9.20;;;;;;;0.24;85.68;98913.40;102964;1331;37153;-72
2022/12/12 08:30:35;;;;;;;10.70;8.50;;;;;;;0.30;85.72;98910.90;102939;1331;37557;-72
2022/12/12 08:33:09;;;;;;;10.20;7.20;;;;;;;0.33;85.60;98906.52;102863;1332;175068;-75
2022/12/12 08:35:43;;;;;;;8.70;6.60;;;;;;;0.37;85.43;98911.27;102929;1329;37750;-75
2022/12/12 08:38:17;;;;;;;11.00;7.00;;;;;;;0.43;85.56;98911.16;102948;1331;37157;-73
2022/12/12 08:40:58;;;;;;;9.80;7.50;;;;;;;0.49;85.47;98912.56;102964;1330;37254;-74
2022/12/12 08:43:34;;;;;;;11.70;8.50;;;;;;;0.54;85.26;98912.98;103022;1329;36179;-74
2022/12/12 08:46:09;;;;;;;12.70;9.10;;;;;;;0.51;84.99;98918.86;102988;1330;37784;-73
2022/12/12 08:48:45;;;;;;;16.50;11.10;;;;;;;0.50;85.18;98918.20;102871;1331;37155;-73
2022/12/12 08:51:20;;;;;;;9.60;7.30;;;;;;;0.54;85.17;98917.44;102877;1331;36777;-72
2022/12/12 08:53:56;;;;;;;15.80;10.70;;;;;;;0.56;84.81;98917.74;102969;1332;37180;-75
2022/12/12 08:56:31;;;;;;;12.90;9.90;;;;;;;0.61;85.02;98918.84;102927;1332;37132;-73
2022/12/12 08:59:06;;;;;;;11.40;9.30;;;;;;;0.68;85.11;98917.15;102972;1328;37145;-76
2022/12/12 09:01:42;;;;;;;13.30;9.10;;;;;;;0.73;85.13;98915.48;102883;1332;36790;-76
2022/12/12 09:04:17;;;;;;;10.80;7.60;;;;;;;0.78;84.87;98913.50;102981;1331;37223;-71
2022/12/12 09:06:51;;;;;;;9.80;7.10;;;;;;;0.79;84.46;98910.55;102245;1332;913436;-72
2022/12/12 09:09:25;;;;;;;8.00;6.30;;;;;;;0.82;84.78;98909.98;102265;1329;924811;-73
2022/12/12 09:12:00;;;;;;;8.70;6.80;;;;;;;0.89;84.55;98908.79;102913;1331;37134;-75
2022/12/12 09:14:34;;;;;;;7.00;6.00;;;;;;;0.92;84.58;98909.73;102951;1329;37484;-73
2022/12/12 09:17:08;;;;;;;12.40;8.40;;;;;;;0.97;84.38;98912.72;102695;1332;36812;-74
2022/12/12 09:19:44;;;;;;;10.60;7.20;;;;;;;1.01;84.37;98910.41;102930;1331;37224;-72
2022/12/12 09:22:18;;;;;;;9.90;5.90;;;;;;;1.03;84.28;98908.14;102277;1329;911901;-73
2022/12/12 09:24:52;;;;;;;8.20;5.90;;;;;;;1.08;84.21;98911.96;102545;1331;524178;-75
2022/12/12 09:27:27;;;;;;;9.90;6.00;;;;;;;1.14;84.06;98910.97;102916;1331;37330;-74
2022/12/12 09:30:01;;;;;;;10.70;6.60;;;;;;;1.17;84.02;98908.66;102973;1331;37341;-75
2022/12/12 09:32:35;;;;;;;10.30;6.80;;;;;;;1.20;83.87;98911.68;102912;1329;37248;-70
2022/12/12 09:35:10;;;;;;;7.80;5.40;;;;;;;1.21;83.70;98914.09;102821;1333;37198;-72
2022/12/12 09:37:47;;;;;;;9.70;5.10;;;;;;;1.21;83.73;98914.75;102930;1328;37135;-72
2022/12/12 09:40:24;;;;;;;6.80;4.70;;;;;;;1.23;83.37;98911.96;102820;1329;37199;-71
2022/12/12 09:42:58;;;;;;;8.30;5.50;;;;;;;1.26;83.39;98911.02;102889;1330;37233;-71
2022/12/12 09:45:33;;;;;;;6.80;5.20;;;;;;;1.32;83.48;98912.78;102917;1330;37215;-73
2022/12/12 09:48:11;;;;;;;11.30;7.20;;;;;;;1.36;83.38;98913.04;102892;1329;37746;-74
2022/12/12 09:50:47;;;;;;;7.70;5.00;;;;;;;1.40;83.39;98914.65;102904;1329;37318;-73
2022/12/12 09:53:22;;;;;;;8.90;4.90;;;;;;;1.42;83.13;98920.44;102903;1331;37329;-74
2022/12/12 09:56:01;;;;;;;10.30;6.80;;;;;;;1.43;82.95;98924.37;102948;1331;36852;-73
2022/12/12 09:58:39;;;;;;;9.70;6.20;;;;;;;1.45;82.68;98922.10;102998;1332;38994;-73
2022/12/12 10:01:19;;;;;;;6.90;4.80;;;;;;;1.47;82.88;98915.84;102947;1331;38483;-74
2022/12/12 10:04:06;;;;;;;6.50;4.90;;;;;;;1.55;83.12;98915.30;102902;1329;36561;-74
2022/12/12 10:06:44;;;;;;;6.80;4.60;;;;;;;1.65;83.02;98922.10;102887;1332;37422;-77
2022/12/12 10:09:44;;;;;;;8.50;6.10;;;;;;;1.72;82.73;98929.66;102956;1329;37275;-75
2022/12/12 10:12:19;;;;;;;6.70;4.80;;;;;;;1.80;82.72;98937.70;102931;1327;36917;-74
2022/12/12 10:14:55;;;;;;;10.20;6.00;;;;;;;1.87;82.48;98935.47;102925;1332;37903;-76
2022/12/12 10:17:31;;;;;;;8.70;4.70;;;;;;;1.90;82.32;98930.23;102913;1328;37103;-75
2022/12/12 10:20:08;;;;;;;4.40;3.60;;;;;;;1.97;82.04;98927.83;102912;1329;37514;-74
2022/12/12 10:22:47;;;;;;;5.70;4.40;;;;;;;2.01;81.74;98924.09;102922;1329;36576;-73
2022/12/12 10:25:26;;;;;;;7.40;5.00;;;;;;;2.05;81.46;98928.98;102963;1329;37903;-75
2022/12/12 10:28:05;;;;;;;;;;;;;;;2.04;81.25;98930.72;102982;1329;37245;-74
2022/12/12 10:30:43;;;;;;;6.30;4.80;;;;;;;2.03;81.52;98928.34;102970;1332;37758;-76
2022/12/12 10:33:23;;;;;;;8.50;5.40;;;;;;;2.08;81.56;98931.48;102975;1329;37371;-75
2022/12/12 10:36:02;;;;;;;7.50;4.60;;;;;;;2.12;81.05;98927.94;102913;1327;37242;-76
2022/12/12 10:38:56;;;;;;;6.50;4.20;;;;;;;2.13;81.01;98928.61;102859;1329;37376;-74
2022/12/12 10:41:36;;;;;;;6.40;4.60;;;;;;;2.24;81.09;98924.35;102843;1333;37405;-73
2022/12/12 10:44:19;;;;;;;7.80;4.90;;;;;;;2.30;81.03;98922.97;102860;1333;37365;-75
2022/12/12 10:46:56;;;;;;;7.40;5.10;;;;;;;2.35;80.51;98925.42;102947;1331;37164;-73
2022/12/12 10:49:30;;;;;;;8.20;4.90;;;;;;;2.34;80.33;98922.68;102939;1329;38671;-75
2022/12/12 10:52:07;;;;;;;6.60;4.90;;;;;;;2.37;80.36;98920.39;102898;1332;36263;-76
2022/12/12 10:54:44;;;;;;;7.20;4.90;;;;;;;2.42;80.20;98924.88;102920;1331;37160;-72
2022/12/12 10:57:24;;;;;;;12.10;6.50;;;;;;;2.44;79.82;98926.71;102948;1328;37854;-74
2022/12/12 10:59:57;;;;;;;;;;;;;;;2.44;79.56;98931.70;102935;1329;37223;-73
2022/12/12 11:02:39;;;;;;;32.30;17.80;;;;;;;2.41;79.77;98934.19;102933;1328;36232;-74
2022/12/12 11:05:21;;;;;;;22.00;13.90;;;;;;;2.37;79.47;98931.38;102940;1329;37129;-74
2022/12/12 11:08:04;;;;;;;29.30;17.30;;;;;;;2.31;79.35;98935.83;102914;1330;37117;-74
2022/12/12 11:10:39;;;;;;;15.30;9.90;;;;;;;2.30;79.11;98932.27;102918;1331;37296;-75
2022/12/12 11:13:19;;;;;;;27.80;15.70;;;;;;;2.27;79.18;98931.65;102922;1329;37405;-74
2022/12/12 11:15:59;;;;;;;15.00;9.90;;;;;;;2.30;79.23;98929.34;102938;1331;36667;-76
2022/12/12 11:18:33;;;;;;;15.00;9.90;;;;;;;2.30;79.32;98929.33;102933;1331;37102;-74
2022/12/12 11:21:10;;;;;;;22.90;13.40;;;;;;;2.31;79.37;98930.85;102918;1329;37340;-74
2022/12/12 11:23:47;;;;;;;34.70;20.20;;;;;;;2.34;79.41;98929.58;102905;1328;37118;-73
2022/12/12 11:26:22;;;;;;;24.60;14.70;;;;;;;2.31;78.77;98929.30;102926;1328;37349;-73
2022/12/12 11:28:58;;;;;;;35.80;19.80;;;;;;;2.29;78.74;98927.98;102903;1329;37277;-73
2022/12/12 11:31:33;;;;;;;18.20;11.70;;;;;;;2.24;78.42;98926.59;102839;1332;37305;-73
2022/12/12 11:34:07;;;;;;;21.90;12.70;;;;;;;2.16;78.20;98935.23;102900;1329;37215;-74
2022/12/12 11:36:42;;;;;;;22.10;13.50;;;;;;;2.10;78.37;98934.36;102832;1330;38711;-73
2022/12/12 11:39:23;;;;;;;17.80;10.80;;;;;;;2.10;78.88;98931.10;102903;1330;37443;-74
2022/12/12 11:42:06;;;;;;;14.60;9.50;;;;;;;2.11;78.70;98930.55;102308;1331;907750;-75
2022/12/12 11:44:40;;;;;;;14.00;8.60;;;;;;;2.16;79.01;98928.52;102860;1330;37141;-73
2022/12/12 11:47:28;;;;;;;24.00;13.50;;;;;;;2.18;79.11;98930.69;102898;1331;38433;-74
2022/12/12 11:50:13;;;;;;;11.00;6.90;;;;;;;2.21;78.92;98931.11;102959;1329;37647;-72
2022/12/12 11:52:48;;;;;;;10.50;7.00;;;;;;;2.20;78.76;98939.08;102855;1332;36382;-74
2022/12/12 11:55:27;;;;;;;24.70;14.30;;;;;;;2.20;78.61;98936.49;102880;1332;37772;-73
2022/12/12 11:58:15;;;;;;;15.30;9.80;;;;;;;2.17;78.54;98942.23;103006;1329;37535;-74
2022/12/12 12:00:55;;;;;;;20.00;11.20;;;;;;;2.18;78.70;98940.50;102938;1330;37140;-77
2022/12/12 12:03:36;;;;;;;29.00;17.20;;;;;;;2.18;78.78;98945.67;102989;1333;38772;-71
2022/12/12 12:06:29;;;;;;;24.10;14.70;;;;;;;2.15;78.22;98942.66;102933;1329;37381;-73
2022/12/12 12:09:29;;;;;;;11.20;6.70;;;;;;;2.12;78.27;98947.39;102950;1329;37149;-74
2022/12/12 12:12:10;;;;;;;22.80;14.20;;;;;;;2.12;78.43;98948.58;102289;1329;912485;-75
2022/12/12 12:15:14;;;;;;;22.50;12.50;;;;;;;2.12;78.44;98953.40;102805;1330;40837;-73
2022/12/12 12:18:18;;;;;;;25.30;13.30;;;;;;;2.08;78.55;98955.41;102901;1332;37218;-73